Time;durP1;ratioP1;P1;durP2;ratioP2;P2;SDS_P1;SDS_P2;PMS_P1;PMS_P2;Temp;Humidity;BMP_temperature;BMP_pressure;BME280_temperature;BME280_humidity;BME280_pressure;Samples;Min_cycle;Max_cycle;Signal;HPM_P1;HPM_P2
2023/11/25 09:14:25;;;;;;;5.38;2.28;;;;;;;5.87;56.95;94597.41;6141430;23;20030;-86
2023/11/25 09:29:59;;;;;;;6.68;1.70;;;;;;;6.12;56.90;94616.25;6064801;23;20023;-86
2023/11/25 09:32:27;;;;;;;4.80;2.20;;;;;;;6.25;56.60;94611.38;6039061;23;20015;-85
2023/11/25 09:34:57;;;;;;;3.08;1.77;;;;;;;6.16;55.92;94627.88;6038739;23;20006;-86
2023/11/25 10:17:30;;;;;;;3.08;1.70;;;;;;;6.18;55.51;94612.22;6128852;23;20052;-86
2023/11/25 11:11:47;;;;;;;3.63;1.67;;;;;;;5.70;54.89;94599.19;6121149;23;20030;-86
2023/11/25 11:14:19;;;;;;;5.82;2.63;;;;;;;5.70;55.13;94608.72;6069966;23;20022;-86
2023/11/25 11:17:04;;;;;;;3.45;1.60;;;;;;;5.75;53.61;94604.69;6069849;23;20138;-86
2023/11/25 11:19:41;;;;;;;5.50;2.30;;;;;;;5.65;54.16;94609.19;6069677;23;20002;-86
2023/11/25 11:29:54;;;;;;;3.92;1.00;;;;;;;6.38;52.53;94603.13;6100474;23;20026;-86
2023/11/25 11:32:23;;;;;;;5.70;1.35;;;;;;;6.23;53.22;94594.47;6099610;23;20089;-86
2023/11/25 11:34:51;;;;;;;3.72;1.02;;;;;;;6.09;53.46;94598.50;6123044;23;20006;-85
2023/11/25 11:37:17;;;;;;;2.42;0.90;;;;;;;6.41;51.96;94601.97;6123071;23;20034;-86
2023/11/25 11:58:28;;;;;;;4.18;1.30;;;;;;;6.51;53.52;94588.88;6124761;23;20045;-86
2023/11/25 13:17:21;;;;;;;3.72;1.40;;;;;;;6.19;53.51;94565.56;6094148;23;20034;-85
2023/11/25 13:19:47;;;;;;;4.63;1.10;;;;;;;6.22;52.40;94542.00;6043867;23;20022;-86
2023/11/25 13:22:12;;;;;;;5.40;1.20;;;;;;;6.29;52.95;94546.50;6044501;23;20109;-86
2023/11/25 13:24:38;;;;;;;3.58;1.00;;;;;;;6.41;52.11;94555.47;6044562;23;20007;-86
2023/11/25 13:29:35;;;;;;;4.68;0.95;;;;;;;6.37;51.78;94544.69;6110464;23;20021;-84
2023/11/25 13:32:04;;;;;;;2.08;0.98;;;;;;;6.30;52.38;94553.25;6110063;23;20018;-86
2023/11/25 13:34:29;;;;;;;3.78;0.90;;;;;;;6.76;50.61;94561.94;6097787;23;20010;-84
2023/11/25 13:36:55;;;;;;;3.13;0.90;;;;;;;6.31;52.31;94576.34;6097941;23;20021;-85
2023/11/25 13:39:23;;;;;;;2.70;0.82;;;;;;;6.01;54.87;94590.78;6098435;23;20013;-85
2023/11/25 13:44:18;;;;;;;3.90;1.08;;;;;;;5.47;56.72;94571.47;6112878;23;20025;-85
2023/11/25 13:46:46;;;;;;;3.15;1.05;;;;;;;4.95;59.15;94591.56;6097607;23;20009;-85
2023/11/25 13:49:12;;;;;;;6.07;1.80;;;;;;;4.70;60.25;94578.63;6073182;23;20010;-85
2023/11/25 13:54:15;;;;;;;9.35;5.43;;;;;;;4.51;59.28;94587.41;6122782;23;20030;-86
2023/11/25 13:56:41;;;;;;;6.78;2.78;;;;;;;4.81;59.36;94590.41;6097095;23;20010;-85
2023/11/25 13:59:07;;;;;;;6.65;2.72;;;;;;;4.76;58.93;94585.75;6073106;23;20009;-85
2023/11/25 14:01:32;;;;;;;7.43;3.78;;;;;;;4.80;59.01;94589.63;6098404;23;20030;-85
2023/11/25 14:16:58;;;;;;;3.67;1.98;;;;;;;4.99;59.02;94585.97;6101390;23;20025;-85
2023/11/25 14:19:26;;;;;;;4.30;2.10;;;;;;;5.17;58.59;94580.66;6147738;23;20085;-85
2023/11/25 14:21:52;;;;;;;6.80;1.60;;;;;;;5.05;59.30;94575.00;6148033;23;20006;-85
2023/11/25 14:37:06;;;;;;;3.88;1.80;;;;;;;5.19;59.17;94570.97;6127008;23;20017;-85
2023/11/25 14:39:35;;;;;;;3.85;1.95;;;;;;;5.18;58.23;94578.88;6099437;23;20022;-85
2023/11/25 14:42:03;;;;;;;9.75;1.80;;;;;;;5.20;57.47;94570.03;6098732;23;20000;-85
2023/11/25 14:57:27;;;;;;;3.10;1.80;;;;;;;5.13;58.52;94571.63;6124534;23;20120;-86
2023/11/25 14:59:54;;;;;;;7.43;1.88;;;;;;;5.28;58.37;94580.34;6099033;23;20072;-85
2023/11/25 15:12:34;;;;;;;5.25;1.50;;;;;;;5.17;57.56;94554.06;6123791;23;20082;-86
2023/11/25 15:14:59;;;;;;;4.82;1.45;;;;;;;5.20;56.46;94564.06;6097404;23;20021;-86
2023/11/25 15:17:25;;;;;;;7.13;1.52;;;;;;;5.11;56.39;94552.94;6097819;23;20010;-85
2023/11/25 15:19:53;;;;;;;5.50;1.40;;;;;;;5.11;57.37;94565.81;6097440;23;20014;-86
2023/11/25 15:22:19;;;;;;;4.72;1.80;;;;;;;4.95;58.39;94563.22;6098294;23;20016;-85
2023/11/25 15:24:44;;;;;;;5.05;1.63;;;;;;;5.05;56.96;94569.84;6099167;23;20096;-85
2023/11/25 15:37:21;;;;;;;5.22;2.22;;;;;;;4.99;57.73;94560.19;6100269;23;20065;-86
2023/11/25 15:39:46;;;;;;;3.70;1.70;;;;;;;5.37;56.82;94576.00;6098763;23;20014;-86
2023/11/25 15:42:12;;;;;;;4.32;1.48;;;;;;;5.53;55.99;94570.03;6147011;23;20013;-85
2023/11/25 15:44:37;;;;;;;5.00;1.48;;;;;;;5.51;56.85;94577.13;6148653;23;20006;-85
2023/11/25 15:47:04;;;;;;;3.92;1.70;;;;;;;5.45;56.52;94568.25;6148580;23;20033;-86
2023/11/25 16:17:47;;;;;;;3.53;1.67;;;;;;;5.19;55.46;94588.22;6123281;23;20022;-86
2023/11/25 16:20:15;;;;;;;4.47;1.60;;;;;;;5.38;55.38;94605.97;6127097;23;20071;-86
2023/11/25 16:22:42;;;;;;;4.00;1.40;;;;;;;5.29;55.81;94602.59;6127219;23;20008;-85
2023/11/25 16:25:08;;;;;;;5.32;1.52;;;;;;;5.32;55.35;94609.19;6127486;23;20064;-86
2023/11/25 16:27:37;;;;;;;7.35;2.28;;;;;;;5.54;55.01;94594.84;6127342;23;20061;-86
2023/11/25 17:25:38;;;;;;;7.25;2.60;;;;;;;4.78;60.41;94655.97;6121801;23;20034;-85
2023/11/25 17:28:04;;;;;;;8.65;3.13;;;;;;;4.73;61.34;94663.34;6126758;23;20071;-85
2023/11/25 17:30:35;;;;;;;7.32;3.30;;;;;;;4.89;60.62;94667.72;6126576;23;20009;-85
2023/11/25 17:33:02;;;;;;;10.73;3.47;;;;;;;4.84;60.66;94670.78;6102428;23;20014;-85
2023/11/25 17:35:28;;;;;;;8.10;3.30;;;;;;;4.91;60.43;94665.81;6126694;23;20009;-85
2023/11/25 17:37:55;;;;;;;7.13;3.15;;;;;;;4.81;60.67;94675.44;6101901;23;20024;-86
2023/11/25 17:40:20;;;;;;;6.50;3.00;;;;;;;4.72;61.28;94671.22;6102847;23;20073;-85
2023/11/25 17:42:46;;;;;;;9.38;3.42;;;;;;;4.75;61.47;94670.91;6126650;23;20037;-85
2023/11/25 17:55:22;;;;;;;9.30;3.67;;;;;;;4.75;60.77;94676.06;6124734;23;20014;-85
2023/11/25 17:57:48;;;;;;;12.65;4.30;;;;;;;4.83;60.37;94678.66;6073306;23;20016;-85
2023/11/25 18:00:14;;;;;;;10.05;3.97;;;;;;;4.87;59.93;94674.81;6097014;23;20073;-85
2023/11/25 18:02:40;;;;;;;7.80;3.00;;;;;;;4.56;60.85;94661.66;6073674;23;20002;-86
2023/11/25 18:05:08;;;;;;;5.45;2.25;;;;;;;4.51;60.13;94662.09;6096889;23;20066;-85
2023/11/25 18:07:37;;;;;;;4.95;2.45;;;;;;;4.66;60.15;94663.16;6073819;23;20010;-85
2023/11/25 18:10:04;;;;;;;7.25;2.20;;;;;;;4.75;59.87;94676.88;6073575;23;20014;-85
2023/11/25 18:28:01;;;;;;;5.43;2.17;;;;;;;4.77;58.61;94659.47;6099275;23;20030;-85
2023/11/25 18:30:26;;;;;;;6.53;2.42;;;;;;;4.67;59.45;94662.19;6146259;23;20010;-85
2023/11/25 18:32:57;;;;;;;4.63;2.08;;;;;;;4.74;59.48;94669.28;6145284;23;20022;-85
2023/11/25 18:35:26;;;;;;;4.45;2.00;;;;;;;4.70;59.50;94664.47;6097472;23;20010;-85
2023/11/25 18:37:52;;;;;;;4.55;2.10;;;;;;;4.81;58.72;94649.69;6121801;23;20010;-85
2023/11/25 18:40:18;;;;;;;6.13;2.30;;;;;;;4.78;58.52;94644.81;6151028;23;20008;-86
2023/11/25 18:42:44;;;;;;;5.10;2.03;;;;;;;4.72;59.33;94641.09;6176469;23;20076;-84
2023/11/25 18:45:10;;;;;;;5.20;2.00;;;;;;;4.75;59.16;94647.72;6151097;23;20091;-86
2023/11/25 18:47:36;;;;;;;4.47;1.85;;;;;;;4.90;58.96;94669.34;6151436;23;20068;-85
2023/11/25 18:52:28;;;;;;;5.78;1.90;;;;;;;4.87;58.32;94651.63;6124475;23;20010;-86
2023/11/25 18:54:58;;;;;;;3.75;2.10;;;;;;;4.87;58.28;94649.03;6099760;23;20025;-85
2023/11/25 18:57:24;;;;;;;6.25;1.88;;;;;;;4.67;58.69;94643.34;6075626;23;20017;-86
2023/11/25 18:59:52;;;;;;;5.65;2.10;;;;;;;4.72;59.64;94650.59;6098918;23;20013;-86
2023/11/25 19:15:08;;;;;;;7.30;2.28;;;;;;;4.68;59.01;94648.34;6124161;23;20060;-86
2023/11/25 19:17:37;;;;;;;4.82;2.17;;;;;;;4.86;58.15;94647.44;6075711;23;20014;-86
2023/11/25 19:20:04;;;;;;;4.03;1.98;;;;;;;4.61;59.11;94644.78;6075858;23;20066;-86
2023/11/25 19:38:35;;;;;;;4.82;2.30;;;;;;;4.59;59.08;94662.16;6094808;23;20105;-86
2023/11/25 19:41:01;;;;;;;6.10;3.08;;;;;;;4.82;58.90;94651.31;6148485;23;20041;-86
2023/11/25 19:43:26;;;;;;;7.30;2.30;;;;;;;4.99;58.68;94667.59;6123582;23;20025;-85
2023/11/25 20:09:01;;;;;;;5.13;2.10;;;;;;;4.65;59.60;94666.69;6124570;23;20103;-86
2023/11/25 20:11:27;;;;;;;4.28;1.95;;;;;;;4.75;59.77;94673.50;6099061;23;20014;-86
2023/11/25 20:29:26;;;;;;;4.78;2.20;;;;;;;5.11;59.01;94674.09;6123819;23;20029;-86
2023/11/25 20:34:30;;;;;;;4.55;2.15;;;;;;;5.14;57.70;94660.91;6094864;23;20026;-85
2023/11/25 20:36:56;;;;;;;2.45;2.00;;;;;;;5.20;57.86;94672.34;6069097;23;20073;-86
2023/11/25 21:30:59;;;;;;;2.90;1.98;;;;;;;5.17;59.03;94670.88;6122993;23;20033;-85
2023/11/25 21:33:24;;;;;;;3.60;2.03;;;;;;;5.09;58.47;94681.19;6097876;23;20010;-86
2023/11/25 21:40:53;;;;;;;4.32;1.95;;;;;;;5.09;58.87;94669.09;6099332;23;20022;-85
2023/11/25 21:51:09;;;;;;;5.55;2.42;;;;;;;4.85;60.50;94680.13;6143948;23;20021;-86
2023/11/25 21:53:35;;;;;;;4.85;2.40;;;;;;;4.82;60.69;94671.91;6125168;23;20017;-85
2023/11/25 21:56:00;;;;;;;2.78;2.50;;;;;;;4.92;60.26;94674.38;6123505;23;20014;-86
2023/11/25 21:58:26;;;;;;;3.60;2.60;;;;;;;4.99;60.41;94685.63;6098211;23;20006;-85
